METAR AND TAF INFORMATION
METAR FOR LEST
ADDS - METARS form results

(2018 UTC 03 August 2021)
Data provider http://aviationweather.gov/metar/data/
 
METAR text: LEST 032000Z 26004KT 180V340 3500 -RA BR BKN002 OVC004 17/16 Q1018 TEMPO 0800 BCFG
Conditions at: LEST (SANTIAGO/LABACOL, ES) observed 2000 UTC 03 August 2021
Temperature: 17.0°C (63°F)
Dewpoint: 16.0°C (61°F) [RH = 94%]
Pressure (altimeter): 30.06 inches Hg (1018.0 mb)
Winds: from the W (260 degrees) at 5 MPH (4 knots; 2.1 m/s)
Visibility: 2.17 miles (3.49 km)
Ceiling: 200 feet AGL
Clouds: broken clouds at 200 feet AGL
overcast cloud deck at 400 feet AGL
Weather: -RA BR  (light rain, mist)

METAR text: LEST 031930Z VRB02KT 4500 -RA BR BKN003 OVC014 17/16 Q1018 TEMPO 0800 BCFG BKN002
Conditions at: LEST (SANTIAGO/LABACOL, ES) observed 1930 UTC 03 August 2021
Temperature: 17.0°C (63°F)
Dewpoint: 16.0°C (61°F) [RH = 94%]
Pressure (altimeter): 30.06 inches Hg (1018.0 mb)
Winds: variable direction winds at 2 MPH (2 knots; 1.0 m/s)
Visibility: 2.80 miles (4.51 km)
Ceiling: 300 feet AGL
Clouds: broken clouds at 300 feet AGL
overcast cloud deck at 1400 feet AGL
Weather: -RA BR  (light rain, mist)

Forecast for: LEST (SANTIAGO/LABACOL, ES)
Text: TAF LEST 031700Z 0318/0418 24007KT 6000 SCT010 BKN020 TX22/0414Z TN16/0404Z
Forecast period: 1800 UTC 03 August 2021 to 1800 UTC 04 August 2021
Forecast type: FROM: standard forecast or significant change
Winds: from the WSW (240 degrees) at 8 MPH (7 knots; 3.6 m/s)
Visibility: 4 miles (6 km)
Ceiling: 2000 feet AGL
Clouds: scattered clouds at 1000 feet AGL
broken clouds at 2000 feet AGL
Weather: no significant weather forecast for this period
Text: TEMPO 0318/0412 3000 -RADZ BR BKN005 BKN010
Forecast period: 1800 UTC 03 August 2021 to 1200 UTC 04 August 2021
Forecast type: TEMPORARY: The following changes expected for less than half the time period
Visibility: 1.86 miles (2.99 km)
Ceiling: 500 feet AGL
Clouds: broken clouds at 500 feet AGL
broken clouds at 1000 feet AGL
Weather: -RA -DZ BR  (light rain, light drizzle, mist)
Text: PROB40
Forecast period: 1900 UTC 03 August 2021 to 1000 UTC 04 August 2021
Forecast type: TEMPORARY: The following changes expected for less than half the time period
Visibility: 0.22 miles (0.35 km)
Ceiling: indefinite ceiling with vertical visibility of 100 feet AGL
Clouds: obscured sky
Weather: FG  (fog)

 AIRPORT MAP

 RUNWAY INFORMATION
Runway 17 Runway length 10499 ft Runway width 148 ft
Runway elevation 1170 ft Runway displaced threshold 394 ft Runway heading 166
Runway 35 Runway length 10499 ft Runway width 148 ft
Runway elevation 1196 ft Runway displaced threshold 0 ft Runway heading 346

 AIRPORT FREQUENCIES
Type APP Name APP Frequency 118.2 MHZ
Type GND Name GND Frequency 121.7 MHZ
Type TWR Name TWR Frequency 118.75 MHZ

 AIRPORT NEAR NAVIGATION AIDS
Type NDB Name Santiago Frequency 417 KHZ
Type VOR-DME Name Santiago Frequency 116400 KHZ





Powered by Virtual Airlines Manager

Maps by Rafael Santos